createdAt,value
2023-04-15T00:01:02.702Z,5.35
2023-04-15T00:03:29.956Z,6.40
2023-04-15T00:05:58.324Z,4.90
2023-04-15T00:08:25.668Z,5.13
2023-04-15T00:10:53.314Z,4.30
2023-04-15T00:13:20.373Z,5.22
2023-04-15T00:15:48.114Z,4.88
2023-04-15T00:18:15.063Z,5.28
2023-04-15T00:20:42.440Z,5.15
2023-04-15T00:23:09.520Z,5.28
2023-04-15T00:25:36.726Z,5.13
2023-04-15T00:28:04.166Z,5.10
2023-04-15T00:30:31.690Z,5.50
2023-04-15T00:32:58.841Z,4.97
2023-04-15T00:35:25.942Z,5.00
2023-04-15T00:37:52.965Z,6.07
2023-04-15T00:40:20.967Z,5.78
2023-04-15T00:42:48.075Z,6.13
2023-04-15T00:45:15.737Z,5.90
2023-04-15T00:47:43.488Z,5.50
2023-04-15T00:50:12.934Z,4.93
2023-04-15T00:52:40.829Z,5.78
2023-04-15T00:55:08.809Z,5.57
2023-04-15T00:57:36.468Z,6.18
2023-04-15T01:00:05.785Z,5.93
2023-04-15T01:02:33.564Z,5.93
2023-04-15T01:05:02.287Z,5.75
2023-04-15T01:07:29.280Z,5.97
2023-04-15T01:09:56.253Z,5.68
2023-04-15T01:12:23.459Z,5.50
2023-04-15T01:14:50.876Z,5.38
2023-04-15T01:17:17.917Z,5.35
2023-04-15T01:19:44.931Z,5.25
2023-04-15T01:22:11.899Z,5.20
2023-04-15T01:24:39.025Z,4.45
2023-04-15T01:27:06.154Z,5.03
2023-04-15T01:29:34.818Z,4.85
2023-04-15T01:32:02.141Z,5.00
2023-04-15T01:34:47.823Z,4.32
2023-04-15T01:37:33.360Z,4.07
2023-04-15T01:40:00.329Z,4.57
2023-04-15T01:42:27.830Z,4.50
2023-04-15T01:44:56.427Z,4.43
2023-04-15T01:47:24.724Z,5.22
2023-04-15T01:49:52.929Z,4.97
2023-04-15T01:52:21.112Z,4.57
2023-04-15T01:54:49.378Z,5.22
2023-04-15T01:57:17.730Z,5.28
2023-04-15T01:59:47.093Z,4.53
2023-04-15T02:02:16.608Z,4.53
2023-04-15T02:04:45.409Z,4.30
2023-04-15T02:07:14.565Z,4.43
2023-04-15T02:09:43.570Z,5.15
2023-04-15T02:12:12.494Z,4.88
2023-04-15T02:14:40.766Z,5.25
2023-04-15T02:17:09.051Z,5.07
2023-04-15T02:19:37.263Z,5.15
2023-04-15T02:22:07.504Z,5.25
2023-04-15T02:24:35.998Z,4.60
2023-04-15T02:27:04.642Z,4.55
2023-04-15T02:29:33.145Z,4.38
2023-04-15T02:32:02.526Z,4.60
2023-04-15T02:34:31.600Z,5.50
2023-04-15T02:36:59.893Z,4.75
2023-04-15T02:39:28.239Z,4.95
2023-04-15T02:41:56.886Z,5.25
2023-04-15T02:44:25.246Z,5.80
2023-04-15T02:46:58.826Z,5.20
2023-04-15T02:49:29.936Z,4.60
2023-04-15T02:52:00.012Z,5.35
2023-04-15T02:54:32.673Z,5.22
2023-04-15T02:57:01.726Z,5.50
2023-04-15T02:59:30.243Z,6.07
2023-04-15T03:02:01.174Z,5.85
2023-04-15T03:07:01.883Z,5.20
2023-04-15T03:09:30.366Z,5.60
2023-04-15T03:11:59.806Z,5.55
2023-04-15T03:14:28.123Z,6.10
2023-04-15T03:16:56.670Z,6.05
2023-04-15T03:19:25.715Z,5.95
2023-04-15T03:21:53.908Z,5.32
2023-04-15T03:24:22.258Z,5.63
2023-04-15T03:26:50.753Z,5.75
2023-04-15T03:29:19.653Z,6.05
2023-04-15T03:31:48.402Z,5.55
2023-04-15T03:34:17.760Z,6.57
2023-04-15T03:36:46.903Z,6.45
2023-04-15T03:39:15.401Z,6.15
2023-04-15T03:41:43.579Z,6.95
2023-04-15T03:44:11.788Z,6.95
2023-04-15T03:46:40.127Z,7.00
2023-04-15T03:49:09.022Z,7.78
2023-04-15T03:51:37.180Z,7.55
2023-04-15T03:54:05.813Z,7.32
2023-04-15T03:56:34.038Z,7.28
2023-04-15T03:59:02.436Z,7.35
2023-04-15T04:01:30.926Z,7.50
2023-04-15T04:03:59.273Z,6.82
2023-04-15T04:06:27.539Z,7.07
2023-04-15T04:08:56.748Z,7.10
2023-04-15T04:11:25.452Z,6.25
2023-04-15T04:13:54.214Z,7.53
2023-04-15T04:16:22.512Z,6.97
2023-04-15T04:18:51.030Z,7.43
2023-04-15T04:21:19.267Z,7.15
2023-04-15T04:23:47.464Z,7.18
2023-04-15T04:26:15.710Z,6.43
2023-04-15T04:28:43.961Z,7.20
2023-04-15T04:31:12.171Z,6.65
2023-04-15T04:33:40.526Z,7.57
2023-04-15T04:36:08.799Z,7.43
2023-04-15T04:38:37.049Z,7.03
2023-04-15T04:41:05.995Z,6.28
2023-04-15T04:43:34.200Z,6.05
2023-04-15T04:46:02.554Z,7.03
2023-04-15T04:48:30.902Z,7.57
2023-04-15T04:50:59.082Z,7.00
2023-04-15T04:53:28.088Z,7.45
2023-04-15T04:55:56.440Z,7.07
2023-04-15T04:58:24.630Z,6.93
2023-04-15T05:00:53.073Z,7.00
2023-04-15T05:03:22.138Z,8.93
2023-04-15T05:05:50.723Z,8.00
2023-04-15T05:08:18.985Z,5.70
2023-04-15T05:10:47.286Z,7.00
2023-04-15T05:13:15.565Z,6.57
2023-04-15T05:15:43.871Z,7.00
2023-04-15T05:18:12.116Z,7.32
2023-04-15T05:20:40.488Z,7.25
2023-04-15T05:23:08.764Z,6.72
2023-04-15T05:25:36.946Z,5.95
2023-04-15T05:28:05.351Z,6.78
2023-04-15T05:30:33.566Z,7.93
2023-04-15T05:33:02.002Z,7.38
2023-04-15T05:35:30.338Z,6.55
2023-04-15T05:37:58.478Z,5.97
2023-04-15T05:40:26.785Z,7.50
2023-04-15T05:42:54.969Z,6.97
2023-04-15T05:45:23.185Z,7.30
2023-04-15T05:47:54.399Z,6.95
2023-04-15T05:50:22.709Z,4.97
2023-04-15T05:52:50.858Z,7.28
2023-04-15T05:55:19.165Z,6.65
2023-04-15T05:57:47.377Z,8.00
2023-04-15T06:00:16.500Z,6.72
2023-04-15T06:02:44.972Z,6.68
2023-04-15T06:05:13.858Z,6.82
2023-04-15T06:07:44.215Z,6.78
2023-04-15T06:10:13.033Z,6.55
2023-04-15T06:12:41.209Z,6.32
2023-04-15T06:15:12.668Z,6.28
2023-04-15T06:17:40.956Z,7.07
2023-04-15T06:20:09.681Z,7.13
2023-04-15T06:22:39.118Z,6.72
2023-04-15T06:25:08.863Z,6.15
2023-04-15T06:27:37.039Z,6.88
2023-04-15T06:30:05.790Z,4.07
2023-04-15T06:32:34.340Z,6.55
2023-04-15T06:35:02.768Z,6.30
2023-04-15T06:37:31.511Z,6.07
2023-04-15T06:40:00.026Z,7.10
2023-04-15T06:42:28.199Z,6.15
2023-04-15T06:44:56.454Z,6.88
2023-04-15T06:47:24.634Z,6.85
2023-04-15T06:49:52.909Z,6.13
2023-04-15T06:52:21.308Z,6.78
2023-04-15T06:54:49.610Z,7.05
2023-04-15T06:57:17.749Z,7.03
2023-04-15T06:59:46.212Z,6.45
2023-04-15T07:02:14.880Z,6.35
2023-04-15T07:04:43.164Z,6.28
2023-04-15T07:07:11.276Z,6.05
2023-04-15T07:09:39.547Z,6.82
2023-04-15T07:12:07.777Z,7.15
2023-04-15T07:14:36.602Z,7.40
2023-04-15T07:17:04.808Z,6.75
2023-04-15T07:19:33.043Z,6.72
2023-04-15T07:22:01.360Z,6.80
2023-04-15T07:24:30.175Z,6.93
2023-04-15T07:27:00.801Z,6.25
2023-04-15T07:29:29.544Z,7.40
2023-04-15T07:31:57.921Z,6.88
2023-04-15T07:34:26.366Z,6.53
2023-04-15T07:36:54.630Z,7.40
2023-04-15T07:39:23.349Z,7.50
2023-04-15T07:41:52.320Z,7.38
2023-04-15T07:44:20.568Z,7.05
2023-04-15T07:46:48.858Z,5.90
2023-04-15T07:49:19.371Z,5.57
2023-04-15T07:51:47.965Z,6.97
2023-04-15T07:54:16.373Z,7.13
2023-04-15T07:56:44.549Z,7.28
2023-04-15T07:59:13.158Z,6.22
2023-04-15T08:01:41.337Z,6.25
2023-04-15T08:04:09.835Z,6.95
2023-04-15T08:06:40.091Z,5.43
2023-04-15T08:09:08.489Z,6.78
2023-04-15T08:11:36.732Z,6.70
2023-04-15T08:14:05.038Z,6.00
2023-04-15T08:16:33.381Z,6.40
2023-04-15T08:19:01.830Z,6.20
2023-04-15T08:21:31.078Z,6.10
2023-04-15T08:24:00.272Z,6.22
2023-04-15T08:26:28.667Z,5.25
2023-04-15T08:28:57.486Z,6.35
2023-04-15T08:31:26.744Z,5.80
2023-04-15T08:33:56.961Z,5.85
2023-04-15T08:36:25.637Z,6.57
2023-04-15T08:38:53.846Z,5.75
2023-04-15T08:41:26.276Z,6.45
2023-04-15T08:43:58.209Z,5.88
2023-04-15T08:46:26.805Z,6.10
2023-04-15T08:48:57.042Z,5.28
2023-04-15T08:51:25.624Z,6.63
2023-04-15T08:53:54.094Z,6.35
2023-04-15T08:56:24.657Z,6.30
2023-04-15T08:58:52.887Z,6.32
2023-04-15T09:01:21.839Z,6.15
2023-04-15T09:03:50.957Z,5.40
2023-04-15T09:06:19.210Z,5.28
2023-04-15T09:08:47.780Z,6.28
2023-04-15T09:11:19.928Z,6.20
2023-04-15T09:13:49.479Z,6.15
2023-04-15T09:16:17.769Z,6.45
2023-04-15T09:18:46.292Z,6.60
2023-04-15T09:21:16.765Z,5.97
2023-04-15T09:24:01.640Z,6.38
2023-04-15T09:26:34.187Z,6.95
2023-04-15T09:29:14.795Z,7.50
2023-04-15T09:31:43.598Z,9.40
2023-04-15T09:34:11.833Z,7.65
2023-04-15T09:36:51.878Z,18.05
2023-04-15T09:39:20.134Z,12.27
2023-04-15T09:42:04.252Z,6.72
2023-04-15T09:44:32.443Z,6.75
2023-04-15T09:47:00.941Z,6.00
2023-04-15T09:49:29.188Z,6.28
2023-04-15T09:52:05.752Z,5.30
2023-04-15T09:54:38.480Z,11.13
2023-04-15T09:57:07.816Z,6.53
2023-04-15T09:59:36.354Z,8.45
2023-04-15T10:02:05.428Z,5.75
2023-04-15T10:04:36.642Z,6.65
2023-04-15T10:07:05.549Z,6.85
2023-04-15T10:09:34.900Z,6.03
2023-04-15T10:12:04.358Z,6.38
2023-04-15T10:14:34.378Z,8.25
2023-04-15T10:17:04.272Z,8.85
2023-04-15T10:19:33.770Z,7.07
2023-04-15T10:22:02.369Z,6.10
2023-04-15T10:24:32.141Z,7.97
2023-04-15T10:27:00.819Z,6.53
2023-04-15T10:29:29.061Z,5.85
2023-04-15T10:31:57.312Z,6.40
2023-04-15T10:34:25.693Z,6.95
2023-04-15T10:36:58.218Z,5.78
2023-04-15T10:39:43.020Z,5.40
2023-04-15T10:42:15.621Z,5.80
2023-04-15T10:44:52.976Z,6.97
2023-04-15T10:49:59.919Z,6.18
2023-04-15T10:52:28.791Z,6.50
2023-04-15T10:55:16.541Z,5.47
2023-04-15T10:57:45.082Z,6.40
2023-04-15T11:00:14.032Z,5.85
2023-04-15T11:02:44.407Z,5.70
2023-04-15T11:05:13.880Z,5.85
2023-04-15T11:07:48.809Z,5.70
2023-04-15T11:10:26.346Z,5.50
2023-04-15T11:12:57.436Z,5.70
2023-04-15T11:18:10.945Z,7.00
2023-04-15T11:20:40.024Z,4.32
2023-04-15T11:23:15.265Z,3.85
2023-04-15T11:25:44.235Z,4.05
2023-04-15T11:28:13.084Z,4.07
2023-04-15T11:30:42.674Z,3.60
2023-04-15T11:33:12.482Z,3.40
2023-04-15T11:35:44.180Z,3.38
2023-04-15T11:38:13.996Z,3.15
2023-04-15T11:40:45.347Z,2.95
2023-04-15T11:43:21.005Z,3.15
2023-04-15T11:46:00.398Z,3.03
2023-04-15T11:48:30.050Z,3.22
2023-04-15T11:51:01.098Z,3.13
2023-04-15T11:53:44.353Z,3.13
2023-04-15T11:56:12.358Z,3.00
2023-04-15T11:58:39.529Z,3.40
2023-04-15T12:01:06.897Z,3.38
2023-04-15T12:03:45.278Z,3.58
2023-04-15T12:06:19.793Z,3.90
2023-04-15T12:08:55.794Z,4.22
2023-04-15T12:11:31.908Z,4.72
2023-04-15T12:14:03.334Z,3.28
2023-04-15T12:16:30.701Z,2.55
2023-04-15T12:18:59.113Z,3.50
2023-04-15T12:21:27.899Z,4.03
2023-04-15T12:23:56.042Z,3.75
2023-04-15T12:26:27.527Z,3.10
2023-04-15T12:28:56.342Z,2.85
2023-04-15T12:31:23.845Z,3.78
2023-04-15T12:33:51.084Z,3.22
2023-04-15T12:36:18.081Z,3.47
2023-04-15T12:38:45.099Z,3.20
2023-04-15T12:41:12.177Z,3.03
2023-04-15T12:43:39.154Z,3.78
2023-04-15T12:46:07.070Z,3.47
2023-04-15T12:48:34.906Z,3.72
2023-04-15T12:51:03.410Z,3.30
2023-04-15T12:53:32.158Z,3.75
2023-04-15T12:55:59.148Z,3.10
2023-04-15T12:58:26.221Z,3.28
2023-04-15T13:00:53.198Z,3.28
2023-04-15T13:03:20.172Z,3.25
2023-04-15T13:05:47.229Z,3.22
2023-04-15T13:08:14.179Z,2.90
2023-04-15T13:10:42.517Z,2.85
2023-04-15T13:13:09.704Z,3.22
2023-04-15T13:15:37.154Z,3.35
2023-04-15T13:18:05.495Z,3.10
2023-04-15T13:20:32.506Z,3.30
2023-04-15T13:22:59.468Z,3.55
2023-04-15T13:25:27.211Z,3.83
2023-04-15T13:27:54.481Z,3.05
2023-04-15T13:30:21.523Z,3.92
2023-04-15T13:32:50.561Z,3.35
2023-04-15T13:35:17.920Z,3.22
2023-04-15T13:37:46.172Z,3.00
2023-04-15T13:40:13.206Z,3.38
2023-04-15T13:42:41.040Z,3.80
2023-04-15T13:45:08.494Z,2.80
2023-04-15T13:47:35.431Z,3.40
2023-04-15T13:50:02.558Z,3.45
2023-04-15T13:52:29.588Z,4.30
2023-04-15T13:55:06.960Z,3.83
2023-04-15T13:57:43.521Z,3.60
2023-04-15T14:00:11.184Z,3.97
2023-04-15T14:02:38.463Z,3.85
2023-04-15T14:05:05.983Z,3.63
2023-04-15T14:07:32.994Z,3.13
2023-04-15T14:10:00.545Z,3.10
2023-04-15T14:12:27.532Z,2.53
2023-04-15T14:14:54.632Z,2.83
2023-04-15T14:17:21.700Z,2.72
2023-04-15T14:19:48.819Z,2.88
2023-04-15T14:22:15.857Z,2.95
2023-04-15T14:24:42.941Z,2.40
2023-04-15T14:27:11.334Z,2.83
2023-04-15T14:29:38.439Z,3.25
2023-04-15T14:32:11.918Z,2.60
2023-04-15T14:34:40.564Z,2.60
2023-04-15T14:37:07.738Z,2.50
2023-04-15T14:39:34.857Z,2.58
2023-04-15T14:42:02.008Z,2.65
2023-04-15T14:44:29.299Z,2.42
2023-04-15T14:46:56.360Z,2.50
2023-04-15T14:49:23.877Z,2.40
2023-04-15T14:51:50.953Z,2.47
2023-04-15T14:54:18.051Z,2.47
2023-04-15T14:56:45.407Z,2.45
2023-04-15T14:59:12.791Z,3.45
2023-04-15T15:01:39.888Z,3.88
2023-04-15T15:04:07.395Z,3.40
2023-04-15T15:06:34.826Z,3.10
2023-04-15T15:09:02.317Z,3.10
2023-04-15T15:11:29.838Z,3.40
2023-04-15T15:13:57.176Z,3.15
2023-04-15T15:16:24.744Z,3.25
2023-04-15T15:18:52.934Z,2.42
2023-04-15T15:21:19.983Z,2.53
2023-04-15T15:23:48.558Z,2.38
2023-04-15T15:26:15.961Z,2.40
2023-04-15T15:28:43.329Z,2.50
2023-04-15T15:31:10.491Z,2.70
2023-04-15T15:33:37.587Z,3.13
2023-04-15T15:36:04.622Z,2.70
2023-04-15T15:38:31.632Z,2.80
2023-04-15T15:40:58.588Z,3.00
2023-04-15T15:43:25.840Z,2.83
2023-04-15T15:45:55.533Z,3.20
2023-04-15T15:48:25.633Z,2.83
2023-04-15T15:50:52.950Z,3.20
2023-04-15T15:53:21.382Z,2.78
2023-04-15T15:55:48.497Z,3.20
2023-04-15T15:58:15.624Z,3.83
2023-04-15T16:00:43.100Z,6.90
2023-04-15T16:03:10.301Z,12.43
2023-04-15T16:05:37.867Z,6.22
2023-04-15T16:08:05.246Z,11.18
2023-04-15T16:10:32.302Z,5.13
2023-04-15T16:12:59.348Z,22.73
2023-04-15T16:15:26.407Z,4.43
2023-04-15T16:17:53.502Z,5.55
2023-04-15T16:20:20.507Z,5.00
2023-04-15T16:22:47.465Z,3.80
2023-04-15T16:25:14.426Z,3.25
2023-04-15T16:27:56.509Z,3.08
2023-04-15T16:30:26.276Z,4.80
2023-04-15T16:32:53.348Z,3.63
2023-04-15T16:35:20.485Z,7.35
2023-04-15T16:37:47.619Z,3.60
2023-04-15T16:40:15.002Z,4.10
2023-04-15T16:42:43.772Z,3.33
2023-04-15T16:45:11.958Z,3.83
2023-04-15T16:47:39.042Z,3.97
2023-04-15T16:50:06.790Z,3.83
2023-04-15T16:52:33.869Z,3.30
2023-04-15T16:55:00.900Z,3.45
2023-04-15T16:57:50.834Z,5.43
2023-04-15T17:00:16.012Z,3.63
2023-04-15T17:02:43.256Z,2.63
2023-04-15T17:05:10.341Z,3.67
2023-04-15T17:07:37.427Z,4.28
2023-04-15T17:10:04.828Z,4.13
2023-04-15T17:12:31.888Z,3.22
2023-04-15T17:14:58.862Z,3.70
2023-04-15T17:17:25.971Z,3.03
2023-04-15T17:19:53.429Z,2.67
2023-04-15T17:22:20.801Z,4.05
2023-04-15T17:24:47.945Z,4.45
2023-04-15T17:27:18.406Z,4.32
2023-04-15T17:29:45.934Z,3.92
2023-04-15T17:32:34.751Z,6.35
2023-04-15T17:35:23.130Z,5.35
2023-04-15T17:38:10.095Z,5.15
2023-04-15T17:40:56.998Z,5.75
2023-04-15T17:43:43.934Z,7.18
2023-04-15T17:46:30.963Z,6.05
2023-04-15T17:49:17.901Z,6.53
2023-04-15T17:52:04.893Z,10.07
2023-04-15T17:54:51.939Z,7.20
2023-04-15T17:57:38.859Z,5.68
2023-04-15T18:00:26.056Z,5.38
2023-04-15T18:03:13.305Z,4.97
2023-04-15T18:06:01.393Z,5.90
2023-04-15T18:08:48.913Z,4.72
2023-04-15T18:11:35.887Z,4.60
2023-04-15T18:14:33.408Z,3.45
2023-04-15T18:17:21.434Z,3.83
2023-04-15T18:20:08.686Z,3.53
2023-04-15T18:22:35.894Z,3.45
2023-04-15T18:25:04.414Z,4.45
2023-04-15T18:27:32.436Z,3.83
2023-04-15T18:29:59.514Z,3.28
2023-04-15T18:32:30.528Z,3.08
2023-04-15T18:34:58.780Z,4.30
2023-04-15T18:37:26.863Z,4.82
2023-04-15T18:39:54.257Z,3.90
2023-04-15T18:42:21.756Z,3.30
2023-04-15T18:44:49.396Z,2.70
2023-04-15T18:47:16.399Z,2.72
2023-04-15T18:49:43.496Z,2.63
2023-04-15T18:52:10.826Z,2.50
2023-04-15T18:54:38.044Z,2.15
2023-04-15T18:57:05.213Z,2.50
2023-04-15T18:59:32.722Z,3.50
2023-04-15T19:02:00.228Z,3.75
2023-04-15T19:04:29.375Z,3.90
2023-04-15T19:06:56.771Z,4.53
2023-04-15T19:09:23.880Z,4.60
2023-04-15T19:11:50.995Z,5.22
2023-04-15T19:14:18.442Z,4.78
2023-04-15T19:16:45.571Z,4.55
2023-04-15T19:19:14.700Z,5.28
2023-04-15T19:21:41.935Z,5.13
2023-04-15T19:24:09.034Z,4.97
2023-04-15T19:26:36.911Z,4.25
2023-04-15T19:29:04.177Z,5.05
2023-04-15T19:31:31.623Z,4.60
2023-04-15T19:33:58.667Z,4.68
2023-04-15T19:36:26.356Z,3.92
2023-04-15T19:38:53.546Z,4.32
2023-04-15T19:41:20.953Z,4.38
2023-04-15T19:43:48.050Z,4.03
2023-04-15T19:46:15.121Z,4.32
2023-04-15T19:48:42.251Z,4.10
2023-04-15T19:51:09.232Z,3.38
2023-04-15T19:53:36.381Z,3.45
2023-04-15T19:56:03.485Z,3.33
2023-04-15T19:58:32.505Z,2.75
2023-04-15T20:01:01.393Z,3.20
2023-04-15T20:03:28.709Z,2.80
2023-04-15T20:05:55.841Z,3.40
2023-04-15T20:08:22.851Z,2.90
2023-04-15T20:10:49.797Z,3.35
2023-04-15T20:13:16.770Z,3.13
2023-04-15T20:15:44.899Z,3.33
2023-04-15T20:18:11.931Z,3.75
2023-04-15T20:20:39.480Z,3.17
2023-04-15T20:23:06.428Z,3.60
2023-04-15T20:25:33.420Z,2.90
2023-04-15T20:28:01.192Z,3.28
2023-04-15T20:30:29.333Z,4.10
2023-04-15T20:32:56.709Z,4.40
2023-04-15T20:35:25.087Z,3.63
2023-04-15T20:37:52.105Z,3.30
2023-04-15T20:40:19.095Z,3.47
2023-04-15T20:42:46.101Z,3.53
2023-04-15T20:45:13.240Z,3.50
2023-04-15T20:47:40.266Z,2.20
2023-04-15T20:50:08.018Z,4.13
2023-04-15T20:52:34.963Z,4.60
2023-04-15T20:55:02.038Z,4.38
2023-04-15T20:57:30.268Z,4.20
2023-04-15T20:59:57.370Z,4.68
2023-04-15T21:02:24.490Z,4.55
2023-04-15T21:04:51.661Z,4.88
2023-04-15T21:07:18.637Z,5.00
2023-04-15T21:09:46.985Z,4.88
2023-04-15T21:12:13.940Z,5.47
2023-04-15T21:14:40.939Z,4.97
2023-04-15T21:17:10.848Z,5.57
2023-04-15T21:19:38.469Z,5.18
2023-04-15T21:22:05.468Z,5.30
2023-04-15T21:24:32.528Z,5.22
2023-04-15T21:26:59.521Z,5.03
2023-04-15T21:29:26.575Z,5.10
2023-04-15T21:31:53.659Z,4.60
2023-04-15T21:34:21.034Z,4.25
2023-04-15T21:36:48.635Z,4.47
2023-04-15T21:39:15.934Z,4.88
2023-04-15T21:41:43.214Z,5.13
2023-04-15T21:44:12.103Z,4.45
2023-04-15T21:46:40.345Z,4.85
2023-04-15T21:49:07.821Z,5.20
2023-04-15T21:51:35.193Z,4.50
2023-04-15T21:54:02.219Z,4.72
2023-04-15T21:56:29.356Z,4.50
2023-04-15T21:58:57.178Z,4.68
2023-04-15T22:01:24.563Z,5.10
2023-04-15T22:03:51.943Z,4.35
2023-04-15T22:06:19.142Z,4.80
2023-04-15T22:08:56.273Z,3.80
2023-04-15T22:11:28.194Z,4.60
2023-04-15T22:13:58.739Z,4.80
2023-04-15T22:16:26.551Z,3.60
2023-04-15T22:18:54.616Z,4.40
2023-04-15T22:21:21.638Z,4.50
2023-04-15T22:23:49.027Z,4.07
2023-04-15T22:26:16.098Z,3.95
2023-04-15T22:28:43.228Z,4.25
2023-04-15T22:31:10.592Z,4.30
2023-04-15T22:33:38.952Z,3.90
2023-04-15T22:36:06.378Z,4.63
2023-04-15T22:38:33.608Z,4.10
2023-04-15T22:41:00.760Z,3.63
2023-04-15T22:43:27.932Z,4.25
2023-04-15T22:45:55.212Z,4.00
2023-04-15T22:48:22.613Z,4.07
2023-04-15T22:50:49.800Z,4.47
2023-04-15T22:53:17.566Z,4.28
2023-04-15T22:55:46.636Z,4.82
2023-04-15T22:58:13.992Z,4.70
2023-04-15T23:00:41.108Z,4.60
2023-04-15T23:03:08.373Z,4.70
2023-04-15T23:05:35.507Z,4.40
2023-04-15T23:08:02.618Z,4.60
2023-04-15T23:10:29.627Z,4.75
2023-04-15T23:12:56.631Z,5.00
2023-04-15T23:15:23.784Z,4.63
2023-04-15T23:17:50.810Z,5.13
2023-04-15T23:20:17.930Z,5.57
2023-04-15T23:22:45.077Z,4.60
2023-04-15T23:25:12.116Z,4.90
2023-04-15T23:27:39.122Z,5.00
2023-04-15T23:30:06.970Z,4.55
2023-04-15T23:32:34.031Z,4.28
2023-04-15T23:35:01.078Z,4.75
2023-04-15T23:37:30.045Z,4.75
2023-04-15T23:39:57.080Z,4.88
2023-04-15T23:42:24.295Z,5.43
2023-04-15T23:44:51.392Z,4.95
2023-04-15T23:47:18.350Z,5.20
2023-04-15T23:49:45.505Z,5.65
2023-04-15T23:52:12.566Z,5.03
2023-04-15T23:54:39.706Z,5.78
2023-04-15T23:57:06.657Z,5.68
2023-04-15T23:59:33.710Z,5.45
